sensor_id;sensor_type;location;lat;lon;timestamp;pressure;altitude;pressure_sealevel;temperature;humidity
63622;BME280;49770;47.544;19.074;2023-03-01T05:12:56;101256.31;;;2.71;89.25
63622;BME280;49770;47.544;19.074;2023-03-01T05:16:04;101249.34;;;2.66;89.48
63622;BME280;49770;47.544;19.074;2023-03-01T05:19:07;101256.31;;;2.67;89.75
63622;BME280;49770;47.544;19.074;2023-03-01T05:22:21;101245.84;;;2.71;89.59
63622;BME280;49770;47.544;19.074;2023-03-01T05:25:24;101251.94;;;2.73;89.79
63622;BME280;49770;47.544;19.074;2023-03-01T05:28:27;101253.69;;;2.74;90.16
63622;BME280;49770;47.544;19.074;2023-03-01T05:31:30;101253.69;;;2.77;90.03
63622;BME280;49770;47.544;19.074;2023-03-01T05:34:35;101255.44;;;2.73;90.64
63622;BME280;49770;47.544;19.074;2023-03-01T05:37:44;101256.31;;;2.78;90.07
63622;BME280;49770;47.544;19.074;2023-03-01T05:40:49;101265.00;;;2.85;90.13
63622;BME280;49770;47.544;19.074;2023-03-01T05:43:51;101261.50;;;2.86;90.48
63622;BME280;49770;47.544;19.074;2023-03-01T05:46:55;101270.22;;;2.90;90.29
63622;BME280;49770;47.544;19.074;2023-03-01T05:49:57;101271.09;;;2.93;89.86
63622;BME280;49770;47.544;19.074;2023-03-01T05:53:02;101275.44;;;2.97;90.05
63622;BME280;49770;47.544;19.074;2023-03-01T05:56:10;101280.72;;;2.90;89.67
63622;BME280;49770;47.544;19.074;2023-03-01T05:59:13;101272.88;;;2.87;89.96
63622;BME280;49770;47.544;19.074;2023-03-01T06:02:17;101278.03;;;3.02;89.68
63622;BME280;49770;47.544;19.074;2023-03-01T06:05:21;101278.94;;;3.00;89.31
63622;BME280;49770;47.544;19.074;2023-03-01T06:08:24;101281.53;;;3.00;89.20
63622;BME280;49770;47.544;19.074;2023-03-01T06:11:29;101284.16;;;3.01;89.34
63622;BME280;49770;47.544;19.074;2023-03-01T06:14:32;101282.38;;;3.11;88.93
63622;BME280;49770;47.544;19.074;2023-03-01T06:17:36;101287.59;;;3.17;89.19
63622;BME280;49770;47.544;19.074;2023-03-01T06:20:41;101285.88;;;3.19;88.59
63622;BME280;49770;47.544;19.074;2023-03-01T06:23:44;101286.69;;;3.26;87.73
63622;BME280;49770;47.544;19.074;2023-03-01T06:26:47;101290.22;;;3.17;88.09
63622;BME280;49770;47.544;19.074;2023-03-01T06:29:50;101287.63;;;3.11;88.36
63622;BME280;49770;47.544;19.074;2023-03-01T06:32:53;101280.59;;;3.21;88.35
63622;BME280;49770;47.544;19.074;2023-03-01T06:36:03;101292.84;;;3.20;87.82
63622;BME280;49770;47.544;19.074;2023-03-01T06:39:06;101292.81;;;3.27;87.13
63622;BME280;49770;47.544;19.074;2023-03-01T06:42:10;101287.53;;;3.33;86.83
63622;BME280;49770;47.544;19.074;2023-03-01T06:45:13;101285.78;;;3.33;86.42
63622;BME280;49770;47.544;19.074;2023-03-01T06:48:16;101291.00;;;3.44;86.32
63622;BME280;49770;47.544;19.074;2023-03-01T06:51:22;101301.47;;;3.44;85.29
63622;BME280;49770;47.544;19.074;2023-03-01T06:54:25;101297.94;;;3.53;85.52
63622;BME280;49770;47.544;19.074;2023-03-01T06:57:28;101305.69;;;3.72;84.36
63622;BME280;49770;47.544;19.074;2023-03-01T07:00:32;101304.84;;;3.67;83.15
63622;BME280;49770;47.544;19.074;2023-03-01T07:03:35;101310.91;;;3.76;82.76
63622;BME280;49770;47.544;19.074;2023-03-01T07:06:38;101311.75;;;3.78;82.85
63622;BME280;49770;47.544;19.074;2023-03-01T07:09:41;101301.22;;;3.85;82.57
63622;BME280;49770;47.544;19.074;2023-03-01T07:12:44;101295.94;;;3.91;81.52
63622;BME280;49770;47.544;19.074;2023-03-01T07:15:48;101298.53;;;3.96;81.25
63622;BME280;49770;47.544;19.074;2023-03-01T07:18:52;101297.66;;;3.92;81.23
63622;BME280;49770;47.544;19.074;2023-03-01T07:21:54;101300.09;;;4.22;79.91
63622;BME280;49770;47.544;19.074;2023-03-01T07:24:58;101294.84;;;4.22;79.53
63622;BME280;49770;47.544;19.074;2023-03-01T07:28:01;101297.25;;;4.45;78.64
63622;BME280;49770;47.544;19.074;2023-03-01T07:31:06;101289.44;;;4.37;78.37
63622;BME280;49770;47.544;19.074;2023-03-01T07:34:09;101288.47;;;4.49;78.28
63622;BME280;49770;47.544;19.074;2023-03-01T07:37:20;101285.81;;;4.51;78.42
63622;BME280;49770;47.544;19.074;2023-03-01T07:40:24;101294.56;;;4.50;77.41
63622;BME280;49770;47.544;19.074;2023-03-01T07:43:28;101294.50;;;4.56;76.83
63622;BME280;49770;47.544;19.074;2023-03-01T07:46:31;101285.69;;;4.63;76.38
63622;BME280;49770;47.544;19.074;2023-03-01T07:49:34;101284.75;;;4.70;75.99
63622;BME280;49770;47.544;19.074;2023-03-01T07:52:37;101287.09;;;4.95;75.83
63622;BME280;49770;47.544;19.074;2023-03-01T07:55:41;101282.31;;;5.27;73.22
63622;BME280;49770;47.544;19.074;2023-03-01T07:58:44;101276.38;;;5.11;74.02
63622;BME280;49770;47.544;19.074;2023-03-01T08:01:47;101268.50;;;5.75;72.85
63622;BME280;49770;47.544;19.074;2023-03-01T08:04:50;101275.59;;;6.27;70.06
63622;BME280;49770;47.544;19.074;2023-03-01T08:07:53;101269.50;;;6.73;68.80
63622;BME280;49770;47.544;19.074;2023-03-01T08:10:58;101270.28;;;6.79;67.54
63622;BME280;49770;47.544;19.074;2023-03-01T08:14:00;101273.94;;;6.71;66.90
63622;BME280;49770;47.544;19.074;2023-03-01T08:17:04;101271.78;;;6.45;66.92
63622;BME280;49770;47.544;19.074;2023-03-01T08:20:07;101269.72;;;6.61;66.90
63622;BME280;49770;47.544;19.074;2023-03-01T08:23:16;101265.66;;;6.43;67.78
63622;BME280;49770;47.544;19.074;2023-03-01T08:26:20;101259.81;;;7.17;64.84
63622;BME280;49770;47.544;19.074;2023-03-01T08:29:23;101267.41;;;6.91;63.25
63622;BME280;49770;47.544;19.074;2023-03-01T08:32:27;101263.34;;;7.17;63.04
63622;BME280;49770;47.544;19.074;2023-03-01T08:35:30;101264.84;;;7.29;63.00
63622;BME280;49770;47.544;19.074;2023-03-01T08:38:34;101255.28;;;7.63;61.84
63622;BME280;49770;47.544;19.074;2023-03-01T08:41:37;101253.69;;;7.18;61.37
63622;BME280;49770;47.544;19.074;2023-03-01T08:44:40;101256.19;;;7.24;62.48
63622;BME280;49770;47.544;19.074;2023-03-01T08:47:44;101259.06;;;7.52;61.28
63622;BME280;49770;47.544;19.074;2023-03-01T08:50:47;101249.66;;;7.78;59.52
63622;BME280;49770;47.544;19.074;2023-03-01T08:53:50;101240.50;;;8.28;58.68
63622;BME280;49770;47.544;19.074;2023-03-01T08:56:53;101237.53;;;9.06;55.63
63622;BME280;49770;47.544;19.074;2023-03-01T08:59:56;101241.91;;;9.65;54.21
63622;BME280;49770;47.544;19.074;2023-03-01T09:02:59;101229.03;;;8.94;54.83
63622;BME280;49770;47.544;19.074;2023-03-01T09:06:03;101238.28;;;10.98;50.03
63622;BME280;49770;47.544;19.074;2023-03-01T09:09:15;101231.56;;;12.01;46.84
63622;BME280;49770;47.544;19.074;2023-03-01T09:12:19;101228.88;;;11.80;45.22
63622;BME280;49770;47.544;19.074;2023-03-01T09:15:21;101235.75;;;10.94;47.81
63622;BME280;49770;47.544;19.074;2023-03-01T09:18:24;101227.28;;;11.08;48.15
63622;BME280;49770;47.544;19.074;2023-03-01T09:21:28;101221.84;;;10.12;49.75
63622;BME280;49770;47.544;19.074;2023-03-01T09:24:42;101217.66;;;10.05;51.42
63622;BME280;49770;47.544;19.074;2023-03-01T09:27:45;101220.22;;;10.59;50.28
63622;BME280;49770;47.544;19.074;2023-03-01T09:30:49;101213.25;;;11.28;49.28
63622;BME280;49770;47.544;19.074;2023-03-01T09:33:53;101206.69;;;11.59;46.78
63622;BME280;49770;47.544;19.074;2023-03-01T09:36:58;101201.84;;;11.48;46.67
63622;BME280;49770;47.544;19.074;2023-03-01T09:40:02;101201.19;;;11.19;48.17
63622;BME280;49770;47.544;19.074;2023-03-01T09:43:47;101201.03;;;10.52;47.98
63622;BME280;49770;47.544;19.074;2023-03-01T09:46:59;101188.97;;;10.43;50.52
63622;BME280;49770;47.544;19.074;2023-03-01T09:50:13;101174.06;;;11.11;51.55
63622;BME280;49770;47.544;19.074;2023-03-01T09:53:27;101184.34;;;10.96;48.46
63622;BME280;49770;47.544;19.074;2023-03-01T10:00:48;101172.22;;;11.13;49.03
63622;BME280;49770;47.544;19.074;2023-03-01T10:03:46;101169.25;;;10.50;51.17
63622;BME280;49770;47.544;19.074;2023-03-01T10:10:37;101169.09;;;11.91;47.45
63622;BME280;49770;47.544;19.074;2023-03-01T10:13:55;101169.69;;;12.58;46.74
63622;BME280;49770;47.544;19.074;2023-03-01T10:17:04;101158.81;;;13.03;47.50
63622;BME280;49770;47.544;19.074;2023-03-01T10:23:27;101155.22;;;13.41;44.52
63622;BME280;49770;47.544;19.074;2023-03-01T10:29:39;101134.97;;;13.19;45.68
63622;BME280;49770;47.544;19.074;2023-03-01T10:32:48;101132.94;;;13.61;44.73
63622;BME280;49770;47.544;19.074;2023-03-01T10:35:53;101121.00;;;13.51;43.44
63622;BME280;49770;47.544;19.074;2023-03-01T10:38:57;101123.16;;;13.79;44.32
63622;BME280;49770;47.544;19.074;2023-03-01T10:42:07;101119.47;;;14.49;42.17
63622;BME280;49770;47.544;19.074;2023-03-01T10:48:33;101110.12;;;13.55;41.81
63622;BME280;49770;47.544;19.074;2023-03-01T10:51:38;101103.91;;;13.72;41.57
63622;BME280;49770;47.544;19.074;2023-03-01T10:54:51;101099.03;;;14.32;42.09
63622;BME280;49770;47.544;19.074;2023-03-01T11:02:00;101094.59;;;17.33;35.37
63622;BME280;49770;47.544;19.074;2023-03-01T11:08:31;101079.66;;;15.86;36.37
63622;BME280;49770;47.544;19.074;2023-03-01T11:11:36;101079.00;;;15.05;37.77
63622;BME280;49770;47.544;19.074;2023-03-01T11:14:54;101071.06;;;13.72;41.07
63622;BME280;49770;47.544;19.074;2023-03-01T11:17:57;101076.78;;;12.53;42.96
63622;BME280;49770;47.544;19.074;2023-03-01T11:21:16;101068.25;;;11.86;45.44
63622;BME280;49770;47.544;19.074;2023-03-01T11:24:19;101064.13;;;13.32;41.95
63622;BME280;49770;47.544;19.074;2023-03-01T11:27:29;101061.34;;;16.80;36.28
63622;BME280;49770;47.544;19.074;2023-03-01T11:31:01;101061.78;;;18.59;32.72
63622;BME280;49770;47.544;19.074;2023-03-01T11:35:05;101053.59;;;16.19;36.30
63622;BME280;49770;47.544;19.074;2023-03-01T11:38:16;101044.53;;;13.33;41.90
63622;BME280;49770;47.544;19.074;2023-03-01T11:41:27;101050.78;;;13.15;42.95
63622;BME280;49770;47.544;19.074;2023-03-01T11:44:34;101050.31;;;12.12;46.24
63622;BME280;49770;47.544;19.074;2023-03-01T11:48:06;101044.34;;;12.07;47.12
63622;BME280;49770;47.544;19.074;2023-03-01T12:48:48;100972.63;;;12.24;46.98
63622;BME280;49770;47.544;19.074;2023-03-01T12:51:58;100972.16;;;11.75;48.44
63622;BME280;49770;47.544;19.074;2023-03-01T12:55:06;100960.44;;;12.38;48.46
63622;BME280;49770;47.544;19.074;2023-03-01T12:58:29;100959.53;;;11.80;48.79
63622;BME280;49770;47.544;19.074;2023-03-01T13:02:04;100963.88;;;12.02;48.73
63622;BME280;49770;47.544;19.074;2023-03-01T13:08:42;100955.41;;;11.53;50.00
63622;BME280;49770;47.544;19.074;2023-03-01T13:11:46;100956.13;;;11.57;50.41
63622;BME280;49770;47.544;19.074;2023-03-01T13:14:53;100956.31;;;11.73;50.09
63622;BME280;49770;47.544;19.074;2023-03-01T13:21:03;100946.78;;;11.48;50.30
63622;BME280;49770;47.544;19.074;2023-03-01T13:24:28;100953.03;;;11.05;51.84
63622;BME280;49770;47.544;19.074;2023-03-01T13:27:31;100951.69;;;11.37;51.30
63622;BME280;49770;47.544;19.074;2023-03-01T13:33:47;100935.94;;;11.53;51.06
63622;BME280;49770;47.544;19.074;2023-03-01T13:36:50;100924.06;;;11.20;51.69
63622;BME280;49770;47.544;19.074;2023-03-01T13:39:53;100927.78;;;11.37;52.24
63622;BME280;49770;47.544;19.074;2023-03-01T13:42:56;100925.91;;;11.59;51.35
63622;BME280;49770;47.544;19.074;2023-03-01T13:46:20;100922.94;;;11.46;51.26
63622;BME280;49770;47.544;19.074;2023-03-01T13:49:28;100929.41;;;11.60;50.84
63622;BME280;49770;47.544;19.074;2023-03-01T13:52:59;100924.47;;;11.71;50.83
63622;BME280;49770;47.544;19.074;2023-03-01T13:56:15;100902.78;;;11.62;50.59
63622;BME280;49770;47.544;19.074;2023-03-01T13:59:21;100896.44;;;11.45;51.15
63622;BME280;49770;47.544;19.074;2023-03-01T14:02:24;100892.56;;;11.52;51.18
63622;BME280;49770;47.544;19.074;2023-03-01T14:05:27;100904.87;;;11.34;51.68
63622;BME280;49770;47.544;19.074;2023-03-01T14:08:31;100889.34;;;11.65;50.79
63622;BME280;49770;47.544;19.074;2023-03-01T14:14:47;100887.56;;;11.25;52.10
63622;BME280;49770;47.544;19.074;2023-03-01T14:21:14;100886.94;;;11.39;52.06
63622;BME280;49770;47.544;19.074;2023-03-01T14:24:20;100870.56;;;11.29;51.72
63622;BME280;49770;47.544;19.074;2023-03-01T14:27:30;100865.75;;;11.38;52.03
63622;BME280;49770;47.544;19.074;2023-03-01T14:30:43;100866.06;;;11.51;52.05
63622;BME280;49770;47.544;19.074;2023-03-01T14:33:54;100864.88;;;11.37;52.39
63622;BME280;49770;47.544;19.074;2023-03-01T14:37:33;100860.81;;;11.49;52.33
63622;BME280;49770;47.544;19.074;2023-03-01T14:40:36;100860.19;;;11.63;51.66
63622;BME280;49770;47.544;19.074;2023-03-01T14:43:46;100864.25;;;11.51;52.00
63622;BME280;49770;47.544;19.074;2023-03-01T14:46:56;100849.16;;;11.32;51.95
63622;BME280;49770;47.544;19.074;2023-03-01T14:50:14;100854.63;;;11.29;54.54
63622;BME280;49770;47.544;19.074;2023-03-01T14:53:27;100857.37;;;11.47;52.32
63622;BME280;49770;47.544;19.074;2023-03-01T14:56:44;100839.09;;;11.20;53.06
63622;BME280;49770;47.544;19.074;2023-03-01T14:59:48;100836.72;;;11.14;53.36
63622;BME280;49770;47.544;19.074;2023-03-01T15:02:55;100837.59;;;11.14;53.61
63622;BME280;49770;47.544;19.074;2023-03-01T15:06:04;100843.97;;;11.10;53.39
63622;BME280;49770;47.544;19.074;2023-03-01T15:09:14;100835.53;;;11.00;53.60
63622;BME280;49770;47.544;19.074;2023-03-01T15:15:36;100829.56;;;10.95;54.30
63622;BME280;49770;47.544;19.074;2023-03-01T15:18:46;100825.88;;;11.18;53.85
63622;BME280;49770;47.544;19.074;2023-03-01T15:21:50;100836.94;;;11.09;53.84
63622;BME280;49770;47.544;19.074;2023-03-01T15:24:54;100835.03;;;10.92;54.30
63622;BME280;49770;47.544;19.074;2023-03-01T15:27:58;100834.69;;;10.79;56.27
63622;BME280;49770;47.544;19.074;2023-03-01T15:31:11;100842.44;;;10.84;54.79
63622;BME280;49770;47.544;19.074;2023-03-01T15:34:24;100833.56;;;10.64;55.27
63622;BME280;49770;47.544;19.074;2023-03-01T15:40:49;100831.75;;;10.44;55.76
63622;BME280;49770;47.544;19.074;2023-03-01T15:43:53;100834.03;;;10.31;56.62
63622;BME280;49770;47.544;19.074;2023-03-01T15:46:59;100829.13;;;10.20;57.20
63622;BME280;49770;47.544;19.074;2023-03-01T15:50:03;100843.16;;;10.23;56.86
63622;BME280;49770;47.544;19.074;2023-03-01T15:53:11;100836.75;;;10.07;57.43
63622;BME280;49770;47.544;19.074;2023-03-01T15:56:16;100838.03;;;9.96;57.96
63622;BME280;49770;47.544;19.074;2023-03-01T15:59:19;100835.91;;;9.82;58.40
63622;BME280;49770;47.544;19.074;2023-03-01T16:02:24;100837.91;;;9.77;58.07
63622;BME280;49770;47.544;19.074;2023-03-01T16:05:32;100834.72;;;9.67;58.48
63622;BME280;49770;47.544;19.074;2023-03-01T16:08:36;100839.66;;;9.54;59.38
63622;BME280;49770;47.544;19.074;2023-03-01T16:11:39;100841.03;;;9.41;60.06
63622;BME280;49770;47.544;19.074;2023-03-01T16:14:43;100838.84;;;9.28;60.72
63622;BME280;49770;47.544;19.074;2023-03-01T16:17:46;100834.09;;;9.13;61.33
63622;BME280;49770;47.544;19.074;2023-03-01T16:20:56;100837.91;;;9.06;61.55
63622;BME280;49770;47.544;19.074;2023-03-01T16:23:59;100848.03;;;8.93;62.08
63622;BME280;49770;47.544;19.074;2023-03-01T16:27:02;100847.66;;;8.78;62.67
63622;BME280;49770;47.544;19.074;2023-03-01T16:30:06;100844.53;;;8.67;63.29
63622;BME280;49770;47.544;19.074;2023-03-01T16:33:13;100855.34;;;8.59;63.54
63622;BME280;49770;47.544;19.074;2023-03-01T16:36:35;100854.56;;;8.57;64.31
63622;BME280;49770;47.544;19.074;2023-03-01T16:39:39;100863.78;;;8.43;65.14
63622;BME280;49770;47.544;19.074;2023-03-01T16:42:42;100856.25;;;8.31;65.44
63622;BME280;49770;47.544;19.074;2023-03-01T16:45:44;100860.97;;;8.21;65.37
63622;BME280;49770;47.544;19.074;2023-03-01T17:01:59;100878.22;;;8.04;66.04
63622;BME280;49770;47.544;19.074;2023-03-01T17:05:03;100878.22;;;8.04;66.04
63622;BME280;49770;47.544;19.074;2023-03-01T17:08:06;100878.16;;;7.47;68.12
